sensor_id;sensor_type;location;lat;lon;timestamp;P1;durP1;ratioP1;P2;durP2;ratioP2
51030;SDS011;37058;41.442;23.240;2023-05-01T00:00:55;17.20;;;9.83;;
51030;SDS011;37058;41.442;23.240;2023-05-01T00:03:22;19.60;;;9.30;;
51030;SDS011;37058;41.442;23.240;2023-05-01T00:05:48;14.83;;;8.87;;
51030;SDS011;37058;41.442;23.240;2023-05-01T00:08:14;14.33;;;7.43;;
51030;SDS011;37058;41.442;23.240;2023-05-01T00:10:40;12.53;;;8.50;;
51030;SDS011;37058;41.442;23.240;2023-05-01T00:13:06;17.70;;;9.13;;
51030;SDS011;37058;41.442;23.240;2023-05-01T00:15:33;14.57;;;9.10;;
51030;SDS011;37058;41.442;23.240;2023-05-01T00:17:59;12.07;;;7.60;;
51030;SDS011;37058;41.442;23.240;2023-05-01T00:20:26;14.60;;;9.03;;
51030;SDS011;37058;41.442;23.240;2023-05-01T00:22:54;8.57;;;7.33;;
51030;SDS011;37058;41.442;23.240;2023-05-01T00:25:20;9.67;;;7.17;;
51030;SDS011;37058;41.442;23.240;2023-05-01T00:27:46;7.47;;;6.00;;
51030;SDS011;37058;41.442;23.240;2023-05-01T00:30:12;8.53;;;6.37;;
51030;SDS011;37058;41.442;23.240;2023-05-01T00:32:38;9.57;;;6.67;;
51030;SDS011;37058;41.442;23.240;2023-05-01T00:35:05;7.30;;;5.90;;
51030;SDS011;37058;41.442;23.240;2023-05-01T00:37:31;7.67;;;5.90;;
51030;SDS011;37058;41.442;23.240;2023-05-01T00:39:57;8.93;;;7.43;;
51030;SDS011;37058;41.442;23.240;2023-05-01T00:42:23;9.03;;;7.40;;
51030;SDS011;37058;41.442;23.240;2023-05-01T00:44:49;7.40;;;6.50;;
51030;SDS011;37058;41.442;23.240;2023-05-01T00:47:15;8.60;;;6.80;;
51030;SDS011;37058;41.442;23.240;2023-05-01T00:49:41;9.00;;;6.73;;
51030;SDS011;37058;41.442;23.240;2023-05-01T00:52:09;9.97;;;6.60;;
51030;SDS011;37058;41.442;23.240;2023-05-01T00:54:36;10.77;;;7.00;;
51030;SDS011;37058;41.442;23.240;2023-05-01T00:57:03;7.97;;;5.93;;
51030;SDS011;37058;41.442;23.240;2023-05-01T00:59:30;11.43;;;7.23;;
51030;SDS011;37058;41.442;23.240;2023-05-01T01:01:56;11.93;;;6.97;;
51030;SDS011;37058;41.442;23.240;2023-05-01T01:04:22;11.80;;;7.20;;
51030;SDS011;37058;41.442;23.240;2023-05-01T01:09:54;10.87;;;7.50;;
51030;SDS011;37058;41.442;23.240;2023-05-01T01:18:08;11.70;;;6.77;;
51030;SDS011;37058;41.442;23.240;2023-05-01T01:21:03;8.83;;;6.30;;
51030;SDS011;37058;41.442;23.240;2023-05-01T01:38:08;9.03;;;6.57;;
51030;SDS011;37058;41.442;23.240;2023-05-01T01:41:07;7.83;;;6.10;;
51030;SDS011;37058;41.442;23.240;2023-05-01T01:43:43;11.17;;;6.70;;
51030;SDS011;37058;41.442;23.240;2023-05-01T01:46:25;9.07;;;6.90;;
51030;SDS011;37058;41.442;23.240;2023-05-01T01:48:51;12.73;;;7.13;;
51030;SDS011;37058;41.442;23.240;2023-05-01T01:51:20;12.93;;;6.77;;
51030;SDS011;37058;41.442;23.240;2023-05-01T01:53:49;7.57;;;6.03;;
51030;SDS011;37058;41.442;23.240;2023-05-01T01:56:19;12.77;;;8.03;;
51030;SDS011;37058;41.442;23.240;2023-05-01T01:58:47;13.17;;;8.83;;
51030;SDS011;37058;41.442;23.240;2023-05-01T02:01:15;16.17;;;9.70;;
51030;SDS011;37058;41.442;23.240;2023-05-01T02:03:42;10.40;;;8.70;;
51030;SDS011;37058;41.442;23.240;2023-05-01T02:06:11;9.90;;;7.87;;
51030;SDS011;37058;41.442;23.240;2023-05-01T02:08:39;9.63;;;7.17;;
51030;SDS011;37058;41.442;23.240;2023-05-01T02:11:06;11.47;;;7.87;;
51030;SDS011;37058;41.442;23.240;2023-05-01T02:13:33;8.20;;;6.80;;
51030;SDS011;37058;41.442;23.240;2023-05-01T02:16:02;7.93;;;6.07;;
51030;SDS011;37058;41.442;23.240;2023-05-01T02:18:30;8.00;;;6.23;;
51030;SDS011;37058;41.442;23.240;2023-05-01T02:20:58;9.37;;;7.43;;
51030;SDS011;37058;41.442;23.240;2023-05-01T02:23:26;14.43;;;6.97;;
51030;SDS011;37058;41.442;23.240;2023-05-01T02:25:53;10.17;;;7.37;;
51030;SDS011;37058;41.442;23.240;2023-05-01T02:28:22;11.07;;;7.60;;
51030;SDS011;37058;41.442;23.240;2023-05-01T02:30:50;11.13;;;7.33;;
51030;SDS011;37058;41.442;23.240;2023-05-01T02:33:17;10.00;;;7.67;;
51030;SDS011;37058;41.442;23.240;2023-05-01T02:35:43;10.70;;;7.60;;
51030;SDS011;37058;41.442;23.240;2023-05-01T02:38:13;10.47;;;8.00;;
51030;SDS011;37058;41.442;23.240;2023-05-01T02:40:42;9.20;;;7.63;;
51030;SDS011;37058;41.442;23.240;2023-05-01T02:43:15;10.83;;;6.30;;
51030;SDS011;37058;41.442;23.240;2023-05-01T02:45:44;7.43;;;5.40;;
51030;SDS011;37058;41.442;23.240;2023-05-01T02:48:14;10.13;;;5.80;;
51030;SDS011;37058;41.442;23.240;2023-05-01T02:50:45;7.77;;;5.10;;
51030;SDS011;37058;41.442;23.240;2023-05-01T02:53:13;6.03;;;5.13;;
51030;SDS011;37058;41.442;23.240;2023-05-01T02:55:40;6.67;;;5.70;;
51030;SDS011;37058;41.442;23.240;2023-05-01T02:58:07;7.07;;;5.63;;
51030;SDS011;37058;41.442;23.240;2023-05-01T03:00:33;7.13;;;5.17;;
51030;SDS011;37058;41.442;23.240;2023-05-01T03:02:59;8.10;;;5.87;;
51030;SDS011;37058;41.442;23.240;2023-05-01T03:05:25;7.53;;;6.00;;
51030;SDS011;37058;41.442;23.240;2023-05-01T03:07:51;6.90;;;5.77;;
51030;SDS011;37058;41.442;23.240;2023-05-01T03:10:17;7.07;;;5.67;;
51030;SDS011;37058;41.442;23.240;2023-05-01T03:12:43;15.80;;;9.30;;
51030;SDS011;37058;41.442;23.240;2023-05-01T03:15:09;13.27;;;8.97;;
51030;SDS011;37058;41.442;23.240;2023-05-01T03:17:36;17.07;;;8.67;;
51030;SDS011;37058;41.442;23.240;2023-05-01T03:20:02;23.60;;;11.43;;
51030;SDS011;37058;41.442;23.240;2023-05-01T03:22:33;16.40;;;9.80;;
51030;SDS011;37058;41.442;23.240;2023-05-01T03:24:59;15.47;;;10.03;;
51030;SDS011;37058;41.442;23.240;2023-05-01T03:27:25;24.90;;;11.87;;
51030;SDS011;37058;41.442;23.240;2023-05-01T03:29:51;21.00;;;11.83;;
51030;SDS011;37058;41.442;23.240;2023-05-01T03:32:17;16.07;;;10.10;;
51030;SDS011;37058;41.442;23.240;2023-05-01T03:34:43;13.73;;;8.90;;
51030;SDS011;37058;41.442;23.240;2023-05-01T03:37:09;8.23;;;6.13;;
51030;SDS011;37058;41.442;23.240;2023-05-01T03:39:36;10.27;;;6.57;;
51030;SDS011;37058;41.442;23.240;2023-05-01T03:42:01;10.80;;;7.27;;
51030;SDS011;37058;41.442;23.240;2023-05-01T03:44:27;7.93;;;6.37;;
51030;SDS011;37058;41.442;23.240;2023-05-01T03:46:53;10.10;;;6.70;;
51030;SDS011;37058;41.442;23.240;2023-05-01T03:49:19;10.43;;;7.17;;
51030;SDS011;37058;41.442;23.240;2023-05-01T03:51:45;11.50;;;7.13;;
51030;SDS011;37058;41.442;23.240;2023-05-01T03:54:11;8.23;;;6.70;;
51030;SDS011;37058;41.442;23.240;2023-05-01T03:56:37;12.03;;;7.33;;
51030;SDS011;37058;41.442;23.240;2023-05-01T03:59:02;21.17;;;7.93;;
51030;SDS011;37058;41.442;23.240;2023-05-01T04:01:28;13.77;;;8.20;;
51030;SDS011;37058;41.442;23.240;2023-05-01T04:03:57;10.87;;;8.47;;
51030;SDS011;37058;41.442;23.240;2023-05-01T04:06:23;12.07;;;9.17;;
51030;SDS011;37058;41.442;23.240;2023-05-01T04:08:50;23.37;;;10.73;;
51030;SDS011;37058;41.442;23.240;2023-05-01T04:11:16;15.17;;;9.40;;
51030;SDS011;37058;41.442;23.240;2023-05-01T04:13:42;10.23;;;7.77;;
51030;SDS011;37058;41.442;23.240;2023-05-01T04:16:08;8.47;;;6.70;;
51030;SDS011;37058;41.442;23.240;2023-05-01T04:18:34;9.97;;;7.80;;
51030;SDS011;37058;41.442;23.240;2023-05-01T04:21:00;10.53;;;7.10;;
51030;SDS011;37058;41.442;23.240;2023-05-01T04:23:25;11.13;;;6.23;;
51030;SDS011;37058;41.442;23.240;2023-05-01T04:25:51;8.07;;;6.03;;
51030;SDS011;37058;41.442;23.240;2023-05-01T04:28:18;8.63;;;5.67;;
51030;SDS011;37058;41.442;23.240;2023-05-01T04:30:44;6.50;;;5.57;;
51030;SDS011;37058;41.442;23.240;2023-05-01T04:33:10;9.07;;;5.27;;
51030;SDS011;37058;41.442;23.240;2023-05-01T04:35:39;6.50;;;5.37;;
51030;SDS011;37058;41.442;23.240;2023-05-01T04:38:06;9.73;;;7.07;;
51030;SDS011;37058;41.442;23.240;2023-05-01T04:40:34;7.53;;;5.90;;
51030;SDS011;37058;41.442;23.240;2023-05-01T04:43:00;7.53;;;6.20;;
51030;SDS011;37058;41.442;23.240;2023-05-01T04:45:26;9.90;;;7.37;;
51030;SDS011;37058;41.442;23.240;2023-05-01T04:47:52;8.13;;;7.23;;
51030;SDS011;37058;41.442;23.240;2023-05-01T04:50:18;9.77;;;6.57;;
51030;SDS011;37058;41.442;23.240;2023-05-01T04:52:44;8.80;;;6.57;;
51030;SDS011;37058;41.442;23.240;2023-05-01T04:55:11;10.57;;;6.47;;
51030;SDS011;37058;41.442;23.240;2023-05-01T04:57:37;10.43;;;5.73;;
51030;SDS011;37058;41.442;23.240;2023-05-01T05:00:03;8.80;;;6.40;;
51030;SDS011;37058;41.442;23.240;2023-05-01T05:02:29;8.13;;;6.30;;
51030;SDS011;37058;41.442;23.240;2023-05-01T05:04:55;10.33;;;7.83;;
51030;SDS011;37058;41.442;23.240;2023-05-01T05:07:21;9.03;;;7.53;;
51030;SDS011;37058;41.442;23.240;2023-05-01T05:09:47;10.13;;;7.57;;
51030;SDS011;37058;41.442;23.240;2023-05-01T05:12:13;18.37;;;9.23;;
51030;SDS011;37058;41.442;23.240;2023-05-01T05:14:39;15.33;;;9.43;;
51030;SDS011;37058;41.442;23.240;2023-05-01T05:17:06;8.47;;;7.57;;
51030;SDS011;37058;41.442;23.240;2023-05-01T05:19:32;9.67;;;7.07;;
51030;SDS011;37058;41.442;23.240;2023-05-01T05:22:00;8.43;;;7.20;;
51030;SDS011;37058;41.442;23.240;2023-05-01T05:24:27;11.00;;;8.33;;
51030;SDS011;37058;41.442;23.240;2023-05-01T05:26:53;9.20;;;7.83;;
51030;SDS011;37058;41.442;23.240;2023-05-01T05:29:19;9.57;;;7.47;;
51030;SDS011;37058;41.442;23.240;2023-05-01T05:31:45;8.07;;;7.07;;
51030;SDS011;37058;41.442;23.240;2023-05-01T05:34:11;8.37;;;6.60;;
51030;SDS011;37058;41.442;23.240;2023-05-01T05:36:37;8.60;;;6.63;;
51030;SDS011;37058;41.442;23.240;2023-05-01T05:39:03;13.07;;;8.07;;
51030;SDS011;37058;41.442;23.240;2023-05-01T05:41:29;8.37;;;6.57;;
51030;SDS011;37058;41.442;23.240;2023-05-01T05:43:56;8.10;;;6.73;;
51030;SDS011;37058;41.442;23.240;2023-05-01T05:46:22;9.93;;;6.67;;
51030;SDS011;37058;41.442;23.240;2023-05-01T05:48:48;8.57;;;7.67;;
51030;SDS011;37058;41.442;23.240;2023-05-01T05:51:14;9.07;;;7.63;;
51030;SDS011;37058;41.442;23.240;2023-05-01T05:53:40;8.57;;;7.67;;
51030;SDS011;37058;41.442;23.240;2023-05-01T05:56:05;9.90;;;7.43;;
51030;SDS011;37058;41.442;23.240;2023-05-01T05:58:32;9.77;;;7.77;;
51030;SDS011;37058;41.442;23.240;2023-05-01T06:00:57;10.23;;;8.30;;
51030;SDS011;37058;41.442;23.240;2023-05-01T06:03:23;20.87;;;8.93;;
51030;SDS011;37058;41.442;23.240;2023-05-01T06:05:51;9.03;;;8.13;;
51030;SDS011;37058;41.442;23.240;2023-05-01T06:08:17;9.63;;;7.38;;
51030;SDS011;37058;41.442;23.240;2023-05-01T06:10:43;15.88;;;13.55;;
51030;SDS011;37058;41.442;23.240;2023-05-01T06:13:09;16.33;;;9.68;;
51030;SDS011;37058;41.442;23.240;2023-05-01T06:15:35;9.77;;;8.20;;
51030;SDS011;37058;41.442;23.240;2023-05-01T06:18:02;9.95;;;7.45;;
51030;SDS011;37058;41.442;23.240;2023-05-01T06:20:28;8.40;;;7.38;;
51030;SDS011;37058;41.442;23.240;2023-05-01T06:22:55;7.32;;;6.20;;
51030;SDS011;37058;41.442;23.240;2023-05-01T06:25:21;7.18;;;6.00;;
51030;SDS011;37058;41.442;23.240;2023-05-01T06:27:48;9.75;;;7.13;;
51030;SDS011;37058;41.442;23.240;2023-05-01T06:30:17;6.20;;;5.53;;
51030;SDS011;37058;41.442;23.240;2023-05-01T06:32:44;31.77;;;5.85;;
51030;SDS011;37058;41.442;23.240;2023-05-01T06:35:11;8.48;;;5.50;;
51030;SDS011;37058;41.442;23.240;2023-05-01T06:37:37;7.63;;;5.65;;
51030;SDS011;37058;41.442;23.240;2023-05-01T06:40:05;11.18;;;6.22;;
51030;SDS011;37058;41.442;23.240;2023-05-01T06:42:33;8.50;;;5.72;;
51030;SDS011;37058;41.442;23.240;2023-05-01T06:45:00;19.15;;;6.30;;
51030;SDS011;37058;41.442;23.240;2023-05-01T06:47:27;9.05;;;5.93;;
51030;SDS011;37058;41.442;23.240;2023-05-01T06:49:53;16.92;;;8.50;;
51030;SDS011;37058;41.442;23.240;2023-05-01T06:52:19;10.45;;;6.43;;
51030;SDS011;37058;41.442;23.240;2023-05-01T06:54:45;10.95;;;6.78;;
51030;SDS011;37058;41.442;23.240;2023-05-01T06:57:11;13.25;;;6.63;;
51030;SDS011;37058;41.442;23.240;2023-05-01T06:59:36;10.77;;;6.68;;
51030;SDS011;37058;41.442;23.240;2023-05-01T07:02:02;8.50;;;6.57;;
51030;SDS011;37058;41.442;23.240;2023-05-01T07:04:29;7.80;;;6.90;;
51030;SDS011;37058;41.442;23.240;2023-05-01T07:06:56;11.55;;;6.22;;
51030;SDS011;37058;41.442;23.240;2023-05-01T07:09:21;16.08;;;7.13;;
51030;SDS011;37058;41.442;23.240;2023-05-01T07:11:47;7.70;;;5.60;;
51030;SDS011;37058;41.442;23.240;2023-05-01T07:14:13;6.40;;;4.80;;
51030;SDS011;37058;41.442;23.240;2023-05-01T07:16:39;7.35;;;5.80;;
51030;SDS011;37058;41.442;23.240;2023-05-01T07:19:05;7.95;;;6.25;;
51030;SDS011;37058;41.442;23.240;2023-05-01T07:21:31;8.00;;;5.28;;
51030;SDS011;37058;41.442;23.240;2023-05-01T07:23:57;9.57;;;5.97;;
51030;SDS011;37058;41.442;23.240;2023-05-01T07:26:26;8.20;;;6.20;;
51030;SDS011;37058;41.442;23.240;2023-05-01T07:28:51;8.27;;;6.32;;
51030;SDS011;37058;41.442;23.240;2023-05-01T07:31:17;7.22;;;4.90;;
51030;SDS011;37058;41.442;23.240;2023-05-01T07:33:43;10.68;;;6.25;;
51030;SDS011;37058;41.442;23.240;2023-05-01T07:36:09;12.63;;;6.30;;
51030;SDS011;37058;41.442;23.240;2023-05-01T07:38:35;6.88;;;4.78;;
51030;SDS011;37058;41.442;23.240;2023-05-01T07:41:01;10.63;;;6.20;;
51030;SDS011;37058;41.442;23.240;2023-05-01T07:43:27;6.00;;;4.65;;
51030;SDS011;37058;41.442;23.240;2023-05-01T07:45:57;7.68;;;5.00;;
51030;SDS011;37058;41.442;23.240;2023-05-01T07:48:25;7.82;;;5.38;;
51030;SDS011;37058;41.442;23.240;2023-05-01T07:50:52;8.60;;;5.35;;
51030;SDS011;37058;41.442;23.240;2023-05-01T07:53:19;6.80;;;5.07;;
51030;SDS011;37058;41.442;23.240;2023-05-01T07:55:46;10.88;;;4.88;;
51030;SDS011;37058;41.442;23.240;2023-05-01T07:58:14;8.05;;;4.95;;
51030;SDS011;37058;41.442;23.240;2023-05-01T08:00:41;6.97;;;5.28;;
51030;SDS011;37058;41.442;23.240;2023-05-01T08:03:09;6.60;;;4.80;;
51030;SDS011;37058;41.442;23.240;2023-05-01T08:05:38;7.65;;;5.55;;
51030;SDS011;37058;41.442;23.240;2023-05-01T08:08:05;9.57;;;5.75;;
51030;SDS011;37058;41.442;23.240;2023-05-01T08:10:31;11.23;;;5.47;;
51030;SDS011;37058;41.442;23.240;2023-05-01T08:12:57;14.88;;;5.00;;
51030;SDS011;37058;41.442;23.240;2023-05-01T08:15:23;9.93;;;4.78;;
51030;SDS011;37058;41.442;23.240;2023-05-01T08:17:49;6.95;;;3.95;;
51030;SDS011;37058;41.442;23.240;2023-05-01T08:20:15;5.13;;;4.18;;
51030;SDS011;37058;41.442;23.240;2023-05-01T08:22:41;7.40;;;4.32;;
51030;SDS011;37058;41.442;23.240;2023-05-01T08:25:07;9.88;;;4.50;;
51030;SDS011;37058;41.442;23.240;2023-05-01T08:27:33;5.20;;;4.50;;
51030;SDS011;37058;41.442;23.240;2023-05-01T08:29:59;5.63;;;4.40;;
51030;SDS011;37058;41.442;23.240;2023-05-01T08:32:25;7.05;;;5.32;;
51030;SDS011;37058;41.442;23.240;2023-05-01T08:34:51;8.98;;;5.30;;
51030;SDS011;37058;41.442;23.240;2023-05-01T08:37:17;5.85;;;4.70;;
51030;SDS011;37058;41.442;23.240;2023-05-01T08:39:43;9.15;;;5.25;;
51030;SDS011;37058;41.442;23.240;2023-05-01T08:42:09;9.82;;;4.95;;
51030;SDS011;37058;41.442;23.240;2023-05-01T08:44:38;7.78;;;4.28;;
51030;SDS011;37058;41.442;23.240;2023-05-01T08:47:14;17.23;;;5.35;;
51030;SDS011;37058;41.442;23.240;2023-05-01T08:49:42;5.93;;;3.85;;
51030;SDS011;37058;41.442;23.240;2023-05-01T08:52:10;7.30;;;4.80;;
51030;SDS011;37058;41.442;23.240;2023-05-01T08:54:41;5.70;;;4.78;;
51030;SDS011;37058;41.442;23.240;2023-05-01T08:57:09;8.95;;;4.45;;
51030;SDS011;37058;41.442;23.240;2023-05-01T08:59:37;6.82;;;4.57;;
51030;SDS011;37058;41.442;23.240;2023-05-01T09:02:05;6.32;;;4.60;;
51030;SDS011;37058;41.442;23.240;2023-05-01T09:04:37;8.10;;;3.80;;
51030;SDS011;37058;41.442;23.240;2023-05-01T09:07:04;9.00;;;5.07;;
51030;SDS011;37058;41.442;23.240;2023-05-01T09:09:31;8.27;;;4.30;;
51030;SDS011;37058;41.442;23.240;2023-05-01T09:12:05;7.82;;;4.20;;
51030;SDS011;37058;41.442;23.240;2023-05-01T09:14:42;10.00;;;4.25;;
51030;SDS011;37058;41.442;23.240;2023-05-01T09:17:09;7.18;;;4.03;;
51030;SDS011;37058;41.442;23.240;2023-05-01T09:19:36;6.90;;;3.97;;
51030;SDS011;37058;41.442;23.240;2023-05-01T09:22:02;17.20;;;4.88;;
51030;SDS011;37058;41.442;23.240;2023-05-01T09:24:27;6.55;;;4.55;;
51030;SDS011;37058;41.442;23.240;2023-05-01T09:26:53;4.95;;;3.88;;
51030;SDS011;37058;41.442;23.240;2023-05-01T09:32:15;7.57;;;4.28;;
51030;SDS011;37058;41.442;23.240;2023-05-01T09:34:52;11.88;;;4.28;;
51030;SDS011;37058;41.442;23.240;2023-05-01T09:37:27;16.27;;;3.85;;
51030;SDS011;37058;41.442;23.240;2023-05-01T09:42:36;6.65;;;3.92;;
51030;SDS011;37058;41.442;23.240;2023-05-01T09:45:13;6.38;;;3.50;;
51030;SDS011;37058;41.442;23.240;2023-05-01T09:47:40;7.38;;;3.83;;
51030;SDS011;37058;41.442;23.240;2023-05-01T09:50:08;10.43;;;4.00;;
51030;SDS011;37058;41.442;23.240;2023-05-01T09:52:35;4.88;;;3.55;;
51030;SDS011;37058;41.442;23.240;2023-05-01T09:55:22;8.52;;;2.58;;
51030;SDS011;37058;41.442;23.240;2023-05-01T09:57:50;4.55;;;3.45;;
51030;SDS011;37058;41.442;23.240;2023-05-01T10:00:16;4.28;;;2.90;;
51030;SDS011;37058;41.442;23.240;2023-05-01T10:02:45;7.90;;;3.67;;
51030;SDS011;37058;41.442;23.240;2023-05-01T10:05:15;6.50;;;2.95;;
51030;SDS011;37058;41.442;23.240;2023-05-01T10:07:57;10.68;;;3.17;;
51030;SDS011;37058;41.442;23.240;2023-05-01T10:10:26;4.93;;;3.40;;
51030;SDS011;37058;41.442;23.240;2023-05-01T10:12:52;5.35;;;3.15;;
51030;SDS011;37058;41.442;23.240;2023-05-01T10:15:18;3.70;;;2.90;;
51030;SDS011;37058;41.442;23.240;2023-05-01T10:17:45;6.47;;;3.58;;
51030;SDS011;37058;41.442;23.240;2023-05-01T10:20:17;5.13;;;3.13;;
51030;SDS011;37058;41.442;23.240;2023-05-01T10:22:43;7.10;;;3.25;;
51030;SDS011;37058;41.442;23.240;2023-05-01T10:25:11;3.97;;;2.75;;
51030;SDS011;37058;41.442;23.240;2023-05-01T10:27:38;4.07;;;2.70;;
51030;SDS011;37058;41.442;23.240;2023-05-01T10:30:05;4.32;;;2.90;;
51030;SDS011;37058;41.442;23.240;2023-05-01T10:32:32;5.72;;;2.47;;
51030;SDS011;37058;41.442;23.240;2023-05-01T10:35:03;3.70;;;2.58;;
51030;SDS011;37058;41.442;23.240;2023-05-01T10:37:48;4.97;;;2.50;;
51030;SDS011;37058;41.442;23.240;2023-05-01T10:51:08;5.32;;;2.75;;
51030;SDS011;37058;41.442;23.240;2023-05-01T10:53:42;4.20;;;2.63;;
51030;SDS011;37058;41.442;23.240;2023-05-01T10:56:52;7.88;;;3.58;;
51030;SDS011;37058;41.442;23.240;2023-05-01T10:59:00;6.50;;;2.80;;
51030;SDS011;37058;41.442;23.240;2023-05-01T11:04:06;3.47;;;2.13;;
51030;SDS011;37058;41.442;23.240;2023-05-01T11:09:39;3.40;;;2.13;;
51030;SDS011;37058;41.442;23.240;2023-05-01T11:15:10;5.63;;;3.22;;
51030;SDS011;37058;41.442;23.240;2023-05-01T11:20:07;4.18;;;2.17;;
51030;SDS011;37058;41.442;23.240;2023-05-01T11:22:35;2.78;;;2.05;;
51030;SDS011;37058;41.442;23.240;2023-05-01T11:25:05;3.97;;;2.50;;
51030;SDS011;37058;41.442;23.240;2023-05-01T11:27:48;3.97;;;1.98;;
51030;SDS011;37058;41.442;23.240;2023-05-01T11:30:19;4.50;;;2.55;;
51030;SDS011;37058;41.442;23.240;2023-05-01T11:32:46;3.33;;;2.35;;
51030;SDS011;37058;41.442;23.240;2023-05-01T11:35:18;3.78;;;2.50;;
51030;SDS011;37058;41.442;23.240;2023-05-01T11:37:49;3.13;;;2.60;;
51030;SDS011;37058;41.442;23.240;2023-05-01T11:43:06;5.15;;;3.17;;
51030;SDS011;37058;41.442;23.240;2023-05-01T11:45:33;6.68;;;2.47;;
51030;SDS011;37058;41.442;23.240;2023-05-01T11:48:01;3.00;;;1.92;;
51030;SDS011;37058;41.442;23.240;2023-05-01T11:50:31;2.78;;;1.83;;
51030;SDS011;37058;41.442;23.240;2023-05-01T11:52:59;4.25;;;2.47;;
51030;SDS011;37058;41.442;23.240;2023-05-01T11:55:32;3.97;;;2.08;;
51030;SDS011;37058;41.442;23.240;2023-05-01T11:57:59;5.72;;;2.58;;
51030;SDS011;37058;41.442;23.240;2023-05-01T12:00:35;2.90;;;2.03;;
51030;SDS011;37058;41.442;23.240;2023-05-01T12:05:40;3.83;;;2.10;;
51030;SDS011;37058;41.442;23.240;2023-05-01T12:08:15;2.47;;;1.77;;
51030;SDS011;37058;41.442;23.240;2023-05-01T12:10:44;4.65;;;1.90;;
51030;SDS011;37058;41.442;23.240;2023-05-01T12:13:13;12.45;;;2.80;;
51030;SDS011;37058;41.442;23.240;2023-05-01T12:15:41;3.88;;;2.58;;
51030;SDS011;37058;41.442;23.240;2023-05-01T12:18:13;6.03;;;2.80;;
51030;SDS011;37058;41.442;23.240;2023-05-01T12:20:42;4.67;;;3.27;;
51030;SDS011;37058;41.442;23.240;2023-05-01T12:23:12;9.95;;;2.95;;
51030;SDS011;37058;41.442;23.240;2023-05-01T12:25:43;6.47;;;2.25;;
51030;SDS011;37058;41.442;23.240;2023-05-01T12:28:11;3.58;;;2.53;;
51030;SDS011;37058;41.442;23.240;2023-05-01T12:30:41;5.97;;;2.85;;
51030;SDS011;37058;41.442;23.240;2023-05-01T12:33:12;5.78;;;2.65;;
51030;SDS011;37058;41.442;23.240;2023-05-01T12:35:44;6.18;;;2.20;;
51030;SDS011;37058;41.442;23.240;2023-05-01T12:43:18;6.65;;;2.22;;
51030;SDS011;37058;41.442;23.240;2023-05-01T12:45:47;3.20;;;2.08;;
51030;SDS011;37058;41.442;23.240;2023-05-01T12:48:17;3.63;;;1.63;;
51030;SDS011;37058;41.442;23.240;2023-05-01T12:50:43;3.65;;;2.38;;
51030;SDS011;37058;41.442;23.240;2023-05-01T12:53:10;3.83;;;2.17;;
51030;SDS011;37058;41.442;23.240;2023-05-01T12:55:46;9.07;;;2.20;;
51030;SDS011;37058;41.442;23.240;2023-05-01T12:58:17;2.65;;;1.80;;
51030;SDS011;37058;41.442;23.240;2023-05-01T13:00:44;3.13;;;1.70;;
51030;SDS011;37058;41.442;23.240;2023-05-01T13:03:25;7.07;;;2.42;;
51030;SDS011;37058;41.442;23.240;2023-05-01T13:06:00;5.60;;;1.88;;
51030;SDS011;37058;41.442;23.240;2023-05-01T13:08:31;4.95;;;1.80;;
51030;SDS011;37058;41.442;23.240;2023-05-01T13:11:08;3.13;;;1.42;;
51030;SDS011;37058;41.442;23.240;2023-05-01T13:13:40;4.88;;;1.70;;
51030;SDS011;37058;41.442;23.240;2023-05-01T13:16:15;108.40;;;10.10;;
51030;SDS011;37058;41.442;23.240;2023-05-01T13:18:48;13.02;;;1.85;;
51030;SDS011;37058;41.442;23.240;2023-05-01T13:21:17;20.63;;;3.58;;
51030;SDS011;37058;41.442;23.240;2023-05-01T13:23:52;4.53;;;1.63;;
51030;SDS011;37058;41.442;23.240;2023-05-01T13:26:24;4.68;;;1.60;;
51030;SDS011;37058;41.442;23.240;2023-05-01T13:29:00;3.35;;;1.23;;
51030;SDS011;37058;41.442;23.240;2023-05-01T13:31:28;2.00;;;1.42;;
51030;SDS011;37058;41.442;23.240;2023-05-01T13:33:54;4.32;;;1.30;;
51030;SDS011;37058;41.442;23.240;2023-05-01T13:36:23;6.38;;;1.50;;
51030;SDS011;37058;41.442;23.240;2023-05-01T13:38:51;1.80;;;1.42;;
51030;SDS011;37058;41.442;23.240;2023-05-01T13:41:20;8.18;;;1.88;;
51030;SDS011;37058;41.442;23.240;2023-05-01T13:43:49;4.03;;;1.20;;
51030;SDS011;37058;41.442;23.240;2023-05-01T13:46:17;3.20;;;1.75;;
51030;SDS011;37058;41.442;23.240;2023-05-01T13:48:45;2.97;;;1.40;;
51030;SDS011;37058;41.442;23.240;2023-05-01T13:51:12;2.28;;;0.88;;
51030;SDS011;37058;41.442;23.240;2023-05-01T13:53:44;4.18;;;1.77;;
51030;SDS011;37058;41.442;23.240;2023-05-01T13:56:10;4.63;;;1.55;;
51030;SDS011;37058;41.442;23.240;2023-05-01T13:58:39;8.02;;;2.35;;
51030;SDS011;37058;41.442;23.240;2023-05-01T14:01:10;3.45;;;1.98;;
51030;SDS011;37058;41.442;23.240;2023-05-01T14:03:44;2.90;;;2.10;;
51030;SDS011;37058;41.442;23.240;2023-05-01T14:06:17;4.38;;;1.88;;
51030;SDS011;37058;41.442;23.240;2023-05-01T14:08:45;3.78;;;1.20;;
51030;SDS011;37058;41.442;23.240;2023-05-01T14:11:12;3.35;;;1.70;;
51030;SDS011;37058;41.442;23.240;2023-05-01T14:13:39;3.95;;;2.40;;
51030;SDS011;37058;41.442;23.240;2023-05-01T14:16:21;5.18;;;3.08;;
51030;SDS011;37058;41.442;23.240;2023-05-01T14:18:50;6.00;;;2.88;;
51030;SDS011;37058;41.442;23.240;2023-05-01T14:21:24;5.82;;;2.72;;
51030;SDS011;37058;41.442;23.240;2023-05-01T14:23:52;5.38;;;2.90;;
51030;SDS011;37058;41.442;23.240;2023-05-01T14:26:19;3.42;;;2.33;;
51030;SDS011;37058;41.442;23.240;2023-05-01T14:28:47;3.17;;;2.30;;
51030;SDS011;37058;41.442;23.240;2023-05-01T14:33:45;2.28;;;1.90;;
51030;SDS011;37058;41.442;23.240;2023-05-01T14:36:11;3.58;;;1.88;;
51030;SDS011;37058;41.442;23.240;2023-05-01T14:38:38;2.13;;;1.70;;
51030;SDS011;37058;41.442;23.240;2023-05-01T14:41:05;2.60;;;1.80;;
51030;SDS011;37058;41.442;23.240;2023-05-01T14:43:35;3.60;;;1.85;;
51030;SDS011;37058;41.442;23.240;2023-05-01T14:46:06;3.30;;;2.08;;
51030;SDS011;37058;41.442;23.240;2023-05-01T14:48:35;2.38;;;1.73;;
51030;SDS011;37058;41.442;23.240;2023-05-01T14:51:08;2.75;;;1.40;;
51030;SDS011;37058;41.442;23.240;2023-05-01T14:53:36;2.80;;;1.50;;
51030;SDS011;37058;41.442;23.240;2023-05-01T14:56:07;4.55;;;1.50;;
51030;SDS011;37058;41.442;23.240;2023-05-01T14:58:34;2.03;;;1.20;;
51030;SDS011;37058;41.442;23.240;2023-05-01T15:01:00;4.35;;;2.20;;
51030;SDS011;37058;41.442;23.240;2023-05-01T15:03:26;4.38;;;2.15;;
51030;SDS011;37058;41.442;23.240;2023-05-01T15:05:53;4.50;;;2.47;;
51030;SDS011;37058;41.442;23.240;2023-05-01T15:08:19;4.53;;;1.77;;
51030;SDS011;37058;41.442;23.240;2023-05-01T15:10:45;2.00;;;1.52;;
51030;SDS011;37058;41.442;23.240;2023-05-01T15:13:11;3.15;;;1.90;;
51030;SDS011;37058;41.442;23.240;2023-05-01T15:15:37;2.80;;;2.00;;
51030;SDS011;37058;41.442;23.240;2023-05-01T15:18:03;4.15;;;2.42;;
51030;SDS011;37058;41.442;23.240;2023-05-01T15:20:29;3.67;;;2.35;;
51030;SDS011;37058;41.442;23.240;2023-05-01T15:22:55;4.00;;;2.47;;
51030;SDS011;37058;41.442;23.240;2023-05-01T15:25:21;3.25;;;2.05;;
51030;SDS011;37058;41.442;23.240;2023-05-01T15:27:47;3.38;;;2.25;;
51030;SDS011;37058;41.442;23.240;2023-05-01T15:30:14;4.22;;;2.20;;
51030;SDS011;37058;41.442;23.240;2023-05-01T15:32:40;3.70;;;2.30;;
51030;SDS011;37058;41.442;23.240;2023-05-01T15:35:06;3.45;;;2.20;;
51030;SDS011;37058;41.442;23.240;2023-05-01T15:37:32;2.75;;;2.03;;
51030;SDS011;37058;41.442;23.240;2023-05-01T15:39:58;4.35;;;2.35;;